createdAt,value
2024-01-27T00:01:21.486Z,61.92
2024-01-27T00:03:48.146Z,62.45
2024-01-27T00:06:14.903Z,61.87
2024-01-27T00:08:43.097Z,62.80
2024-01-27T00:11:11.836Z,62.74
2024-01-27T00:13:38.566Z,62.45
2024-01-27T00:16:06.413Z,62.89
2024-01-27T00:18:33.210Z,62.70
2024-01-27T00:21:00.025Z,62.32
2024-01-27T00:23:26.821Z,63.09
2024-01-27T00:25:54.993Z,61.93
2024-01-27T00:28:21.667Z,61.69
2024-01-27T00:30:48.466Z,61.84
2024-01-27T00:33:15.353Z,61.66
2024-01-27T00:35:42.171Z,62.10
2024-01-27T00:38:08.865Z,61.58
2024-01-27T00:40:35.587Z,61.60
2024-01-27T00:43:04.898Z,62.26
2024-01-27T00:45:31.714Z,62.35
2024-01-27T00:47:58.714Z,62.23
2024-01-27T00:50:25.572Z,61.61
2024-01-27T00:52:52.786Z,61.97
2024-01-27T00:55:20.500Z,61.67
2024-01-27T00:57:47.193Z,61.41
2024-01-27T01:00:16.346Z,61.22
2024-01-27T01:02:43.049Z,61.91
2024-01-27T01:05:09.724Z,61.83
2024-01-27T01:07:36.585Z,61.76
2024-01-27T01:10:03.636Z,62.22
2024-01-27T01:12:30.521Z,62.41
2024-01-27T01:14:57.401Z,61.56
2024-01-27T01:17:25.498Z,61.22
2024-01-27T01:19:52.359Z,62.09
2024-01-27T01:22:19.136Z,62.22
2024-01-27T01:24:45.801Z,61.98
2024-01-27T01:27:12.573Z,62.24
2024-01-27T01:29:39.308Z,61.39
2024-01-27T01:32:06.693Z,61.16
2024-01-27T01:34:34.865Z,60.88
2024-01-27T01:37:01.641Z,60.60
2024-01-27T01:39:28.425Z,61.62
2024-01-27T01:41:55.229Z,61.63
2024-01-27T01:44:21.983Z,62.51
2024-01-27T01:46:48.710Z,62.40
2024-01-27T01:49:15.574Z,62.12
2024-01-27T01:51:43.700Z,62.54
2024-01-27T01:54:10.438Z,61.63
2024-01-27T01:56:37.140Z,61.96
2024-01-27T01:59:03.798Z,61.23
2024-01-27T02:01:30.778Z,61.29
2024-01-27T02:03:57.673Z,60.90
2024-01-27T02:06:24.432Z,61.25
2024-01-27T02:08:52.617Z,61.08
2024-01-27T02:11:19.398Z,60.79
2024-01-27T02:13:46.327Z,60.26
2024-01-27T02:16:13.142Z,60.80
2024-01-27T02:18:39.991Z,60.99
2024-01-27T02:21:06.777Z,61.29
2024-01-27T02:23:33.580Z,61.77
2024-01-27T02:26:01.724Z,60.70
2024-01-27T02:28:28.440Z,60.90
2024-01-27T02:30:55.151Z,60.67
2024-01-27T02:33:21.992Z,61.81
2024-01-27T02:35:48.784Z,61.17
2024-01-27T02:38:15.512Z,60.52
2024-01-27T02:40:42.235Z,60.27
2024-01-27T02:43:10.375Z,60.63
2024-01-27T02:45:37.131Z,61.08
2024-01-27T02:48:04.493Z,60.67
2024-01-27T02:50:31.294Z,61.63
2024-01-27T02:52:58.051Z,61.11
2024-01-27T02:55:24.775Z,60.38
2024-01-27T02:57:51.448Z,60.30
2024-01-27T03:00:19.825Z,60.75
2024-01-27T03:02:46.525Z,60.82
2024-01-27T03:05:13.513Z,61.07
2024-01-27T03:07:40.231Z,61.38
2024-01-27T03:10:07.549Z,61.22
2024-01-27T03:12:34.402Z,61.32
2024-01-27T03:15:01.523Z,61.85
2024-01-27T03:17:29.586Z,62.11
2024-01-27T03:19:56.479Z,62.81
2024-01-27T03:22:23.257Z,62.95
2024-01-27T03:24:49.956Z,63.60
2024-01-27T03:27:16.832Z,63.78
2024-01-27T03:29:43.611Z,63.73
2024-01-27T03:32:10.323Z,63.25
2024-01-27T03:34:39.258Z,64.24
2024-01-27T03:37:05.982Z,64.12
2024-01-27T03:39:32.890Z,63.65
2024-01-27T03:41:59.698Z,63.92
2024-01-27T03:44:26.446Z,63.43
2024-01-27T03:46:53.201Z,63.88
2024-01-27T03:49:20.039Z,63.86
2024-01-27T03:51:48.166Z,64.13
2024-01-27T03:54:14.889Z,64.70
2024-01-27T03:56:41.978Z,64.64
2024-01-27T03:59:08.732Z,65.58
2024-01-27T04:01:35.534Z,65.21
2024-01-27T04:04:02.373Z,65.46
2024-01-27T04:06:29.371Z,66.06
2024-01-27T04:08:57.625Z,66.56
2024-01-27T04:11:24.437Z,67.05
2024-01-27T04:13:51.407Z,66.69
2024-01-27T04:16:18.081Z,66.55
2024-01-27T04:18:44.960Z,66.91
2024-01-27T04:21:11.779Z,66.46
2024-01-27T04:23:38.511Z,66.56
2024-01-27T04:26:06.626Z,66.80
2024-01-27T04:28:33.330Z,66.92
2024-01-27T04:31:00.092Z,66.75
2024-01-27T04:33:27.045Z,66.69
2024-01-27T04:35:53.803Z,66.81
2024-01-27T04:38:20.606Z,66.87
2024-01-27T04:40:47.591Z,67.91
2024-01-27T04:43:16.976Z,68.68
2024-01-27T04:45:43.710Z,68.14
2024-01-27T04:48:10.819Z,67.78
2024-01-27T04:50:37.603Z,67.92
2024-01-27T04:53:04.686Z,67.56
2024-01-27T04:55:31.444Z,67.84
2024-01-27T04:57:58.136Z,67.32
2024-01-27T05:00:26.373Z,66.59
2024-01-27T05:02:53.269Z,66.80
2024-01-27T05:05:20.084Z,66.82
2024-01-27T05:07:46.791Z,66.63
2024-01-27T05:10:13.509Z,67.39
2024-01-27T05:12:40.428Z,67.35
2024-01-27T05:15:07.879Z,66.63
2024-01-27T05:17:35.996Z,66.95
2024-01-27T05:20:02.882Z,66.24
2024-01-27T05:22:29.605Z,65.94
2024-01-27T05:24:56.342Z,65.77
2024-01-27T05:27:23.089Z,65.91
2024-01-27T05:29:49.991Z,65.77
2024-01-27T05:32:16.771Z,65.34
2024-01-27T05:34:44.990Z,65.95
2024-01-27T05:37:11.776Z,66.17
2024-01-27T05:39:38.495Z,66.06
2024-01-27T05:42:05.421Z,65.58
2024-01-27T05:44:32.167Z,66.83
2024-01-27T05:46:58.945Z,67.36
2024-01-27T05:49:25.805Z,67.43
2024-01-27T05:51:53.993Z,67.46
2024-01-27T05:54:20.729Z,67.98
2024-01-27T05:56:47.407Z,68.43
2024-01-27T05:59:14.112Z,68.55
2024-01-27T06:01:40.810Z,68.84
2024-01-27T06:04:07.678Z,67.82
2024-01-27T06:06:34.553Z,69.33
2024-01-27T06:09:02.841Z,68.97
2024-01-27T06:11:30.673Z,69.24
2024-01-27T06:13:57.493Z,70.22
2024-01-27T06:16:24.248Z,69.36
2024-01-27T06:18:51.076Z,68.96
2024-01-27T06:21:18.011Z,68.79
2024-01-27T06:23:44.820Z,70.78
2024-01-27T06:26:13.997Z,70.85
2024-01-27T06:28:40.737Z,70.36
2024-01-27T06:31:07.535Z,69.79
2024-01-27T06:33:35.787Z,69.67
2024-01-27T06:36:02.810Z,69.37
2024-01-27T06:38:29.594Z,69.49
2024-01-27T06:40:56.358Z,69.13
2024-01-27T06:43:24.817Z,69.34
2024-01-27T06:45:51.722Z,70.19
2024-01-27T06:48:18.549Z,69.09
2024-01-27T06:50:45.355Z,68.62
2024-01-27T06:53:12.216Z,67.94
2024-01-27T06:55:42.485Z,69.02
2024-01-27T06:58:10.516Z,69.30
2024-01-27T07:00:38.796Z,69.01
2024-01-27T07:03:06.028Z,68.54
2024-01-27T07:05:32.929Z,69.02
2024-01-27T07:07:59.802Z,68.90
2024-01-27T07:10:26.477Z,68.16
2024-01-27T07:12:53.256Z,68.64
2024-01-27T07:15:19.990Z,68.32
2024-01-27T07:17:48.067Z,67.32
2024-01-27T07:20:15.060Z,67.02
2024-01-27T07:22:42.664Z,67.42
2024-01-27T07:25:09.396Z,67.96
2024-01-27T07:27:36.159Z,68.19
2024-01-27T07:30:03.102Z,68.66
2024-01-27T07:32:29.918Z,68.38
2024-01-27T07:34:57.999Z,68.13
2024-01-27T07:37:24.939Z,67.53
2024-01-27T07:39:51.699Z,67.86
2024-01-27T07:42:18.451Z,66.47
2024-01-27T07:44:45.276Z,66.05
2024-01-27T07:47:12.067Z,65.13
2024-01-27T07:49:39.042Z,65.26
2024-01-27T07:52:07.556Z,66.19
2024-01-27T07:54:34.366Z,66.27
2024-01-27T07:57:01.400Z,65.16
2024-01-27T07:59:33.429Z,65.64
2024-01-27T08:02:00.936Z,66.18
2024-01-27T08:04:28.119Z,66.43
2024-01-27T08:06:55.290Z,66.56
2024-01-27T08:09:23.460Z,66.12
2024-01-27T08:11:50.234Z,66.69
2024-01-27T08:14:16.996Z,67.75
2024-01-27T08:16:43.719Z,67.67
2024-01-27T08:19:10.516Z,67.35
2024-01-27T08:21:37.440Z,67.34
2024-01-27T08:24:04.772Z,66.43
2024-01-27T08:26:32.830Z,65.69
2024-01-27T08:28:59.620Z,66.35
2024-01-27T08:31:26.327Z,65.64
2024-01-27T08:33:53.355Z,65.28
2024-01-27T08:36:20.365Z,64.94
2024-01-27T08:38:47.035Z,65.29
2024-01-27T08:41:16.514Z,65.69
2024-01-27T08:43:44.706Z,65.28
2024-01-27T08:46:11.625Z,65.67
2024-01-27T08:48:38.455Z,65.68
2024-01-27T08:51:05.297Z,65.61
2024-01-27T08:53:32.028Z,65.67
2024-01-27T08:55:58.719Z,64.87
2024-01-27T08:58:25.555Z,64.31
2024-01-27T09:00:53.717Z,64.01
2024-01-27T09:03:21.254Z,63.83
2024-01-27T09:05:48.564Z,63.96
2024-01-27T09:08:15.798Z,63.68
2024-01-27T09:10:43.101Z,63.94
2024-01-27T09:13:14.186Z,63.34
2024-01-27T09:15:44.556Z,63.34
2024-01-27T09:18:14.185Z,63.69
2024-01-27T09:20:42.102Z,64.17
2024-01-27T09:23:10.677Z,63.82
2024-01-27T09:25:38.674Z,62.83
2024-01-27T09:28:08.504Z,62.59
2024-01-27T09:30:38.646Z,62.42
2024-01-27T09:33:06.669Z,62.81
2024-01-27T09:35:34.722Z,62.55
2024-01-27T09:38:01.504Z,61.54
2024-01-27T09:40:28.194Z,61.46
2024-01-27T09:42:54.882Z,61.05
2024-01-27T09:45:21.870Z,61.06
2024-01-27T09:47:48.649Z,61.27
2024-01-27T09:50:16.041Z,61.59
2024-01-27T09:52:44.189Z,61.47
2024-01-27T09:55:10.845Z,62.01
2024-01-27T09:57:40.929Z,61.42
2024-01-27T10:00:10.586Z,61.72
2024-01-27T10:02:37.623Z,61.32
2024-01-27T10:05:05.023Z,61.14
2024-01-27T10:07:31.717Z,60.79
2024-01-27T10:09:59.724Z,60.26
2024-01-27T10:12:26.833Z,60.29
2024-01-27T10:14:53.659Z,59.72
2024-01-27T10:17:21.446Z,59.57
2024-01-27T10:19:48.198Z,59.20
2024-01-27T10:22:14.955Z,59.14
2024-01-27T10:24:41.647Z,58.62
2024-01-27T10:27:10.862Z,59.01
2024-01-27T10:29:37.583Z,59.50
2024-01-27T10:32:10.506Z,58.51
2024-01-27T10:34:37.360Z,58.69
2024-01-27T10:37:04.222Z,58.75
2024-01-27T10:39:34.543Z,58.48
2024-01-27T10:42:01.837Z,58.65
2024-01-27T10:44:30.131Z,58.37
2024-01-27T10:46:56.902Z,58.22
2024-01-27T10:49:23.821Z,57.34
2024-01-27T10:51:54.993Z,57.59
2024-01-27T10:54:26.003Z,57.18
2024-01-27T10:56:53.090Z,57.49
2024-01-27T10:59:20.179Z,56.76
2024-01-27T11:01:48.616Z,55.78
2024-01-27T11:04:15.635Z,57.34
2024-01-27T11:06:42.330Z,56.52
2024-01-27T11:09:09.542Z,55.77
2024-01-27T11:11:36.257Z,56.83
2024-01-27T11:14:03.013Z,56.42
2024-01-27T11:16:30.031Z,55.96
2024-01-27T11:18:58.465Z,55.26
2024-01-27T11:21:25.320Z,55.83
2024-01-27T11:23:52.130Z,55.49
2024-01-27T11:26:20.870Z,55.57
2024-01-27T11:28:48.368Z,54.72
2024-01-27T11:31:17.730Z,55.13
2024-01-27T11:33:45.008Z,54.75
2024-01-27T11:36:20.364Z,55.33
2024-01-27T11:38:47.117Z,54.36
2024-01-27T11:41:13.785Z,54.37
2024-01-27T11:43:43.193Z,54.20
2024-01-27T11:46:09.896Z,54.66
2024-01-27T11:48:42.696Z,56.42
2024-01-27T11:51:11.692Z,54.96
2024-01-27T11:53:41.151Z,54.56
2024-01-27T11:56:07.970Z,55.70
2024-01-27T11:58:34.821Z,54.83
2024-01-27T12:01:01.604Z,54.69
2024-01-27T12:03:28.371Z,55.44
2024-01-27T12:05:55.262Z,56.48
2024-01-27T12:08:21.992Z,55.09
2024-01-27T12:10:50.182Z,56.98
2024-01-27T12:13:16.856Z,56.45
2024-01-27T12:15:44.028Z,55.19
2024-01-27T12:18:11.335Z,56.60
2024-01-27T12:20:38.194Z,55.60
2024-01-27T12:23:05.324Z,55.13
2024-01-27T12:25:32.055Z,54.44
2024-01-27T12:28:02.473Z,55.17
2024-01-27T12:30:29.221Z,55.42
2024-01-27T12:32:56.271Z,56.89
2024-01-27T12:35:24.262Z,58.56
2024-01-27T12:37:51.073Z,61.22
2024-01-27T12:40:22.178Z,61.32
2024-01-27T12:42:50.708Z,61.27
2024-01-27T12:45:19.026Z,60.11
2024-01-27T12:47:45.816Z,58.72
2024-01-27T12:50:12.745Z,57.82
2024-01-27T12:52:39.563Z,57.47
2024-01-27T12:55:06.705Z,57.14
2024-01-27T12:57:33.475Z,56.89
2024-01-27T13:00:00.425Z,53.84
2024-01-27T13:02:28.459Z,54.04
2024-01-27T13:04:55.153Z,55.18
2024-01-27T13:07:21.798Z,54.14
2024-01-27T13:09:48.606Z,54.03
2024-01-27T13:12:15.365Z,54.30
2024-01-27T13:14:42.186Z,52.85
2024-01-27T13:17:08.881Z,52.80
2024-01-27T13:19:36.979Z,53.97
2024-01-27T13:22:03.990Z,53.77
2024-01-27T13:24:30.793Z,53.45
2024-01-27T13:26:57.596Z,52.57
2024-01-27T13:29:24.550Z,51.73
2024-01-27T13:31:51.291Z,52.15
2024-01-27T13:34:18.763Z,51.96
2024-01-27T13:36:47.092Z,51.45
2024-01-27T13:39:13.845Z,51.04
2024-01-27T13:41:40.718Z,51.45
2024-01-27T13:44:07.375Z,51.09
2024-01-27T13:46:34.173Z,53.04
2024-01-27T13:49:01.177Z,50.39
2024-01-27T13:51:28.119Z,49.54
2024-01-27T13:53:56.323Z,50.70
2024-01-27T13:56:23.063Z,50.91
2024-01-27T13:58:49.755Z,50.82
2024-01-27T14:01:16.533Z,49.30
2024-01-27T14:03:43.520Z,49.31
2024-01-27T14:06:10.367Z,49.65
2024-01-27T14:08:37.095Z,50.20
2024-01-27T14:11:05.302Z,50.74
2024-01-27T14:13:31.979Z,49.92
2024-01-27T14:15:58.710Z,50.27
2024-01-27T14:18:25.592Z,50.18
2024-01-27T14:20:52.356Z,49.88
2024-01-27T14:23:19.092Z,49.85
2024-01-27T14:25:47.771Z,49.38
2024-01-27T14:28:16.463Z,49.72
2024-01-27T14:30:43.624Z,50.02
2024-01-27T14:33:10.603Z,49.95
2024-01-27T14:35:37.609Z,49.47
2024-01-27T14:38:05.028Z,48.81
2024-01-27T14:40:32.166Z,49.71
2024-01-27T14:42:58.975Z,48.82
2024-01-27T14:45:27.196Z,48.35
2024-01-27T14:47:57.010Z,48.23
2024-01-27T14:50:25.315Z,47.84
2024-01-27T14:52:52.318Z,48.03
2024-01-27T14:55:19.004Z,47.70
2024-01-27T14:57:45.691Z,46.96
2024-01-27T15:00:13.280Z,46.64
2024-01-27T15:02:41.401Z,46.10
2024-01-27T15:05:08.296Z,45.84
2024-01-27T15:07:35.024Z,46.58
2024-01-27T15:10:02.046Z,46.37
2024-01-27T15:12:28.813Z,45.83
2024-01-27T15:14:55.724Z,46.04
2024-01-27T15:17:24.972Z,46.32
2024-01-27T15:19:54.295Z,45.86
2024-01-27T15:22:21.125Z,45.61
2024-01-27T15:24:47.833Z,46.15
2024-01-27T15:27:14.584Z,46.03
2024-01-27T15:29:41.629Z,46.87
2024-01-27T15:32:08.641Z,45.66
2024-01-27T15:34:35.444Z,45.97
2024-01-27T15:37:03.774Z,46.69
2024-01-27T15:39:30.577Z,46.95
2024-01-27T15:41:57.515Z,47.39
2024-01-27T15:44:24.311Z,47.26
2024-01-27T15:46:51.079Z,47.17
2024-01-27T15:49:17.921Z,47.73
2024-01-27T15:51:44.871Z,46.74
2024-01-27T15:54:13.323Z,47.20
2024-01-27T15:56:40.327Z,48.29
2024-01-27T15:59:07.034Z,47.76
2024-01-27T16:01:33.796Z,47.98
2024-01-27T16:04:00.695Z,47.68
2024-01-27T16:06:27.608Z,48.61
2024-01-27T16:08:54.392Z,48.05
2024-01-27T16:11:23.135Z,48.66
2024-01-27T16:13:49.840Z,49.58
2024-01-27T16:16:16.602Z,49.52
2024-01-27T16:18:43.541Z,49.18
2024-01-27T16:21:10.439Z,49.65
2024-01-27T16:23:37.279Z,49.78
2024-01-27T16:26:04.317Z,49.90
2024-01-27T16:28:32.465Z,49.66
2024-01-27T16:30:59.230Z,50.63
2024-01-27T16:33:26.084Z,49.85
2024-01-27T16:35:52.806Z,50.71
2024-01-27T16:38:19.593Z,50.78
2024-01-27T16:40:46.308Z,50.74
2024-01-27T16:43:13.592Z,51.85
2024-01-27T16:45:41.812Z,52.29
2024-01-27T16:48:08.745Z,51.31
2024-01-27T16:50:35.944Z,51.28
2024-01-27T16:53:02.672Z,51.69
2024-01-27T16:55:29.414Z,52.44
2024-01-27T16:57:56.168Z,52.67
2024-01-27T17:00:22.972Z,52.54
2024-01-27T17:02:51.262Z,52.87
2024-01-27T17:05:18.194Z,52.53
2024-01-27T17:07:44.961Z,53.37
2024-01-27T17:10:11.799Z,53.24
2024-01-27T17:12:38.529Z,53.51
2024-01-27T17:15:09.394Z,53.10
2024-01-27T17:17:38.088Z,53.37
2024-01-27T17:20:07.393Z,52.83
2024-01-27T17:22:34.207Z,52.66
2024-01-27T17:25:00.966Z,52.82
2024-01-27T17:27:27.834Z,52.23
2024-01-27T17:29:54.739Z,52.77
2024-01-27T17:32:21.529Z,52.68
2024-01-27T17:34:48.400Z,52.36
2024-01-27T17:37:16.508Z,53.10
2024-01-27T17:39:43.290Z,53.14
2024-01-27T17:42:12.129Z,52.99
2024-01-27T17:44:39.214Z,53.10
2024-01-27T17:47:06.015Z,53.51
2024-01-27T17:49:32.785Z,53.31
2024-01-27T17:51:59.492Z,53.25
2024-01-27T17:54:27.625Z,53.38
2024-01-27T17:56:54.388Z,53.52
2024-01-27T17:59:22.677Z,53.75
2024-01-27T18:01:49.389Z,53.78
2024-01-27T18:04:16.273Z,53.88
2024-01-27T18:06:43.301Z,54.29
2024-01-27T18:09:10.186Z,54.36
2024-01-27T18:11:38.978Z,54.45
2024-01-27T18:14:05.837Z,54.15
2024-01-27T18:16:32.551Z,54.30
2024-01-27T18:18:59.235Z,54.16
2024-01-27T18:21:25.928Z,54.35
2024-01-27T18:23:52.876Z,54.04
2024-01-27T18:26:19.567Z,54.59
2024-01-27T18:28:47.609Z,54.44
2024-01-27T18:31:16.029Z,54.48
2024-01-27T18:33:42.922Z,54.35
2024-01-27T18:36:09.902Z,54.09
2024-01-27T18:38:36.764Z,54.29
2024-01-27T18:41:03.697Z,54.81
2024-01-27T18:43:30.449Z,54.65
2024-01-27T18:45:58.708Z,54.41
2024-01-27T18:48:25.851Z,55.39
2024-01-27T18:50:52.987Z,55.37
2024-01-27T18:53:19.712Z,54.87
2024-01-27T18:55:46.469Z,54.66
2024-01-27T18:58:13.190Z,54.67
2024-01-27T19:00:39.995Z,54.89
2024-01-27T19:03:08.419Z,54.98
2024-01-27T19:05:35.438Z,55.40
2024-01-27T19:08:02.244Z,55.35
2024-01-27T19:10:28.988Z,55.23
2024-01-27T19:12:55.752Z,55.77
2024-01-27T19:15:22.477Z,55.65
2024-01-27T19:17:49.264Z,55.52
2024-01-27T19:20:17.677Z,55.11
2024-01-27T19:22:44.464Z,54.89
2024-01-27T19:25:11.384Z,55.24
2024-01-27T19:27:38.234Z,54.93
2024-01-27T19:30:06.357Z,56.00
2024-01-27T19:32:33.077Z,56.53
2024-01-27T19:34:59.954Z,56.33
2024-01-27T19:37:28.002Z,56.45
2024-01-27T19:39:54.684Z,56.45
2024-01-27T19:42:21.386Z,56.35
2024-01-27T19:44:48.125Z,56.19
2024-01-27T19:47:14.833Z,56.90
2024-01-27T19:49:41.703Z,56.98
2024-01-27T19:52:08.504Z,58.25
2024-01-27T19:54:36.942Z,58.46
2024-01-27T19:57:04.026Z,58.01
2024-01-27T19:59:30.898Z,58.23
2024-01-27T20:01:57.629Z,57.66
2024-01-27T20:04:24.545Z,58.23
2024-01-27T20:06:51.515Z,58.29
2024-01-27T20:09:18.553Z,58.28
2024-01-27T20:11:46.986Z,57.80
2024-01-27T20:14:13.749Z,57.97
2024-01-27T20:16:40.412Z,58.48
2024-01-27T20:19:07.281Z,57.91
2024-01-27T20:21:34.097Z,58.71
2024-01-27T20:24:00.829Z,58.60
2024-01-27T20:26:27.567Z,58.17
2024-01-27T20:28:55.701Z,58.20
2024-01-27T20:31:22.817Z,57.83
2024-01-27T20:33:50.592Z,58.77
2024-01-27T20:36:17.622Z,58.90
2024-01-27T20:38:44.616Z,59.19
2024-01-27T20:41:11.359Z,58.41
2024-01-27T20:43:38.152Z,59.26
2024-01-27T20:46:06.247Z,58.69
2024-01-27T20:48:33.051Z,58.36
2024-01-27T20:50:59.986Z,58.33
2024-01-27T20:53:26.757Z,59.08
2024-01-27T20:55:53.492Z,58.81
2024-01-27T20:58:20.253Z,58.48
2024-01-27T21:00:47.165Z,58.63
2024-01-27T21:03:15.399Z,58.39
2024-01-27T21:05:42.117Z,58.78
2024-01-27T21:08:08.856Z,58.12
2024-01-27T21:10:35.650Z,57.96
2024-01-27T21:13:02.410Z,58.20
2024-01-27T21:15:29.139Z,58.35
2024-01-27T21:17:55.937Z,57.99
2024-01-27T21:20:24.069Z,58.23
2024-01-27T21:22:50.801Z,58.70
2024-01-27T21:25:17.612Z,57.93
2024-01-27T21:27:44.415Z,58.19
2024-01-27T21:30:11.907Z,58.60
2024-01-27T21:32:38.794Z,58.26
2024-01-27T21:35:06.033Z,58.12
2024-01-27T21:37:34.129Z,58.43
2024-01-27T21:40:00.849Z,58.63
2024-01-27T21:42:27.604Z,57.89
2024-01-27T21:44:54.627Z,58.37
2024-01-27T21:47:21.435Z,58.78
2024-01-27T21:49:48.204Z,58.86
2024-01-27T21:52:16.419Z,58.47
2024-01-27T21:54:44.824Z,58.21
2024-01-27T21:57:11.716Z,58.69
2024-01-27T21:59:38.467Z,58.67
2024-01-27T22:02:05.371Z,59.22
2024-01-27T22:04:32.354Z,59.26
2024-01-27T22:06:59.209Z,58.45
2024-01-27T22:09:26.037Z,58.93
2024-01-27T22:11:54.120Z,58.94
2024-01-27T22:14:21.152Z,59.04
2024-01-27T22:16:47.855Z,58.52
2024-01-27T22:19:15.340Z,58.41
2024-01-27T22:21:42.482Z,57.95
2024-01-27T22:24:09.410Z,57.94
2024-01-27T22:26:37.164Z,57.76
2024-01-27T22:29:05.387Z,58.09
2024-01-27T22:31:32.688Z,58.32
2024-01-27T22:34:00.188Z,58.15
2024-01-27T22:36:27.859Z,58.74
2024-01-27T22:38:56.701Z,59.16
2024-01-27T22:41:24.431Z,58.85
2024-01-27T22:43:52.008Z,59.22
2024-01-27T22:46:20.808Z,58.12
2024-01-27T22:48:48.633Z,58.29
2024-01-27T22:51:15.976Z,59.03
2024-01-27T22:53:43.210Z,58.56
2024-01-27T22:56:10.340Z,58.00
2024-01-27T22:58:37.415Z,58.24
2024-01-27T23:01:05.857Z,57.55
2024-01-27T23:03:35.109Z,58.40
2024-01-27T23:06:04.120Z,58.39
2024-01-27T23:08:31.686Z,58.19
2024-01-27T23:11:00.217Z,58.57
2024-01-27T23:13:27.954Z,57.96
2024-01-27T23:15:55.859Z,58.27
2024-01-27T23:18:28.472Z,57.68
2024-01-27T23:20:56.893Z,59.11
2024-01-27T23:23:23.993Z,58.38
2024-01-27T23:25:51.129Z,58.67
2024-01-27T23:28:19.935Z,58.92
2024-01-27T23:30:48.308Z,58.17
2024-01-27T23:33:19.870Z,58.45
2024-01-27T23:35:47.100Z,59.42
2024-01-27T23:38:16.220Z,58.89
2024-01-27T23:40:43.667Z,59.56
2024-01-27T23:43:11.126Z,59.41
2024-01-27T23:45:38.646Z,58.93
2024-01-27T23:48:07.497Z,58.37
2024-01-27T23:50:35.431Z,58.89
2024-01-27T23:53:03.267Z,58.56
2024-01-27T23:55:34.567Z,58.09
2024-01-27T23:58:02.184Z,58.20
